PVG1 YBCS-WAJJ
Flight info
| Callsign | PVG1 |
|---|---|
| Flight time | 2h 24m |
| Altitude | 36000 |
| Route | AVDAN R204 HID DCT MKE W66 UPNUM/N0492F350 W66 IDINA |
| Aircraft | B772/H-SDE2E3FGHIJ5LORVWXY/LB1D1 |
Departure
| Time | 2026-05-07 13:26 |
|---|---|
| Airport | Cairns International Airport (YBCS) |
Arrival
| Time | 2026-05-07 15:50 |
|---|---|
| Airport | Dortheys Hiyo Eluay International Airport (WAJJ) |
| Time | Latitude | Longitude | Altitude | Speed | Heading |
|---|---|---|---|---|---|
| 2026-05-07 12:52 | -16.87128 | 145.75731 | 21 ft | 0 kts | 106° |
| 2026-05-07 13:11 | -16.87128 | 145.75730 | 21 ft | 1 kts | 106° |
| 2026-05-07 13:11 | -16.87127 | 145.75727 | 23 ft | 0 kts | 106° |
| 2026-05-07 13:13 | -16.87125 | 145.75721 | 23 ft | 2 kts | 106° |
| 2026-05-07 13:14 | -16.87121 | 145.75705 | 22 ft | 2 kts | 106° |
| 2026-05-07 13:14 | -16.87116 | 145.75688 | 25 ft | 2 kts | 106° |
| 2026-05-07 13:14 | -16.87110 | 145.75665 | 23 ft | 4 kts | 106° |
| 2026-05-07 13:14 | -16.87102 | 145.75635 | 24 ft | 4 kts | 106° |
| 2026-05-07 13:15 | -16.87094 | 145.75605 | 23 ft | 4 kts | 92° |
| 2026-05-07 13:15 | -16.87099 | 145.75575 | 23 ft | 4 kts | 69° |
| 2026-05-07 13:15 | -16.87101 | 145.75569 | 23 ft | 0 kts | 69° |
| 2026-05-07 13:18 | -16.87101 | 145.75570 | 23 ft | 1 kts | 69° |
| 2026-05-07 13:18 | -16.87095 | 145.75578 | 23 ft | 2 kts | 47° |
| 2026-05-07 13:19 | -16.87072 | 145.75579 | 25 ft | 4 kts | 344° |
| 2026-05-07 13:19 | -16.87038 | 145.75558 | 24 ft | 7 kts | 319° |
| 2026-05-07 13:19 | -16.87024 | 145.75505 | 21 ft | 9 kts | 261° |
| 2026-05-07 13:19 | -16.87046 | 145.75442 | 24 ft | 9 kts | 248° |
| 2026-05-07 13:20 | -16.87071 | 145.75380 | 22 ft | 9 kts | 245° |
| 2026-05-07 13:20 | -16.87097 | 145.75320 | 21 ft | 9 kts | 246° |
| 2026-05-07 13:20 | -16.87123 | 145.75259 | 24 ft | 9 kts | 246° |
| 2026-05-07 13:20 | -16.87149 | 145.75197 | 24 ft | 9 kts | 246° |
| 2026-05-07 13:21 | -16.87175 | 145.75136 | 23 ft | 9 kts | 246° |
| 2026-05-07 13:21 | -16.87200 | 145.75074 | 21 ft | 9 kts | 246° |
| 2026-05-07 13:21 | -16.87226 | 145.75013 | 22 ft | 9 kts | 246° |
| 2026-05-07 13:21 | -16.87252 | 145.74952 | 23 ft | 9 kts | 246° |
| 2026-05-07 13:22 | -16.87268 | 145.74888 | 23 ft | 9 kts | 278° |
| 2026-05-07 13:22 | -16.87222 | 145.74844 | 23 ft | 9 kts | 333° |
| 2026-05-07 13:22 | -16.87164 | 145.74816 | 22 ft | 9 kts | 336° |
| 2026-05-07 13:22 | -16.87105 | 145.74789 | 21 ft | 9 kts | 336° |
| 2026-05-07 13:23 | -16.87054 | 145.74754 | 22 ft | 7 kts | 302° |
| 2026-05-07 13:23 | -16.87049 | 145.74728 | 21 ft | 0 kts | 272° |
| 2026-05-07 13:24 | -16.87061 | 145.74672 | 20 ft | 12 kts | 247° |
| 2026-05-07 13:24 | -16.87088 | 145.74606 | 18 ft | 6 kts | 246° |
| 2026-05-07 13:24 | -16.87109 | 145.74594 | 18 ft | 4 kts | 178° |
| 2026-05-07 13:24 | -16.87123 | 145.74599 | 19 ft | 0 kts | 157° |
| 2026-05-07 13:26 | -16.87187 | 145.74627 | 19 ft | 38 kts | 156° |
| 2026-05-07 13:26 | -16.87677 | 145.74850 | 24 ft | 113 kts | 156° |
| 2026-05-07 13:26 | -16.88596 | 145.75262 | 175 ft | 159 kts | 157° |
| 2026-05-07 13:26 | -16.89606 | 145.75714 | 1000 ft | 157 kts | 155° |
| 2026-05-07 13:27 | -16.90443 | 145.76523 | 1442 ft | 178 kts | 118° |
| 2026-05-07 13:27 | -16.90614 | 145.77822 | 1806 ft | 194 kts | 80° |
| 2026-05-07 13:27 | -16.89906 | 145.79049 | 2334 ft | 203 kts | 42° |
| 2026-05-07 13:27 | -16.88585 | 145.79655 | 2722 ft | 221 kts | 9° |
| 2026-05-07 13:28 | -16.86997 | 145.79610 | 2872 ft | 242 kts | 349° |
| 2026-05-07 13:28 | -16.85368 | 145.78921 | 3051 ft | 264 kts | 332° |
| 2026-05-07 13:28 | -16.83728 | 145.77887 | 3312 ft | 284 kts | 328° |
| 2026-05-07 13:28 | -16.82045 | 145.76758 | 3880 ft | 291 kts | 328° |
| 2026-05-07 13:29 | -16.80325 | 145.75607 | 4502 ft | 296 kts | 329° |
| 2026-05-07 13:29 | -16.78577 | 145.74455 | 5196 ft | 297 kts | 329° |
| 2026-05-07 13:29 | -16.76835 | 145.73322 | 6018 ft | 293 kts | 329° |
| 2026-05-07 13:29 | -16.75111 | 145.72216 | 6793 ft | 290 kts | 329° |
| 2026-05-07 13:30 | -16.73381 | 145.71116 | 7419 ft | 292 kts | 329° |
| 2026-05-07 13:30 | -16.71632 | 145.70011 | 8006 ft | 296 kts | 329° |
| 2026-05-07 13:30 | -16.69859 | 145.68897 | 8641 ft | 297 kts | 329° |
| 2026-05-07 13:30 | -16.68088 | 145.67788 | 9334 ft | 297 kts | 329° |
| 2026-05-07 13:31 | -16.66316 | 145.66680 | 10016 ft | 296 kts | 329° |
| 2026-05-07 13:31 | -16.64529 | 145.65565 | 10430 ft | 306 kts | 329° |
| 2026-05-07 13:31 | -16.62638 | 145.64386 | 10571 ft | 327 kts | 329° |
| 2026-05-07 13:31 | -16.60626 | 145.63133 | 10715 ft | 348 kts | 329° |
| 2026-05-07 13:32 | -16.58511 | 145.61816 | 10949 ft | 365 kts | 329° |
| 2026-05-07 13:32 | -16.56303 | 145.60441 | 11486 ft | 373 kts | 329° |
| 2026-05-07 13:32 | -16.54063 | 145.59048 | 12222 ft | 375 kts | 329° |
| 2026-05-07 13:32 | -16.51822 | 145.57654 | 13114 ft | 375 kts | 329° |
| 2026-05-07 13:33 | -16.49538 | 145.56234 | 13805 ft | 381 kts | 329° |
| 2026-05-07 13:33 | -16.47247 | 145.54810 | 14447 ft | 385 kts | 329° |
| 2026-05-07 13:33 | -16.44941 | 145.53376 | 15195 ft | 387 kts | 329° |
| 2026-05-07 13:33 | -16.42651 | 145.51954 | 15941 ft | 389 kts | 329° |
| 2026-05-07 13:34 | -16.40320 | 145.50506 | 16699 ft | 391 kts | 329° |
| 2026-05-07 13:34 | -16.35600 | 145.47576 | 18180 ft | 398 kts | 329° |
| 2026-05-07 13:34 | -16.33208 | 145.46092 | 18828 ft | 401 kts | 329° |
| 2026-05-07 13:35 | -16.30798 | 145.44597 | 19441 ft | 405 kts | 329° |
| 2026-05-07 13:35 | -16.28368 | 145.43090 | 20070 ft | 409 kts | 328° |
| 2026-05-07 13:35 | -16.25909 | 145.41565 | 20683 ft | 412 kts | 328° |
| 2026-05-07 13:35 | -16.23431 | 145.40029 | 21321 ft | 416 kts | 328° |
| 2026-05-07 13:36 | -16.20964 | 145.38499 | 21942 ft | 419 kts | 328° |
| 2026-05-07 13:36 | -16.18454 | 145.36945 | 22533 ft | 422 kts | 328° |
| 2026-05-07 13:36 | -16.15907 | 145.35368 | 23112 ft | 426 kts | 328° |
| 2026-05-07 13:36 | -16.13348 | 145.33783 | 23671 ft | 429 kts | 328° |
| 2026-05-07 13:37 | -16.10766 | 145.32192 | 24140 ft | 432 kts | 328° |
| 2026-05-07 13:37 | -16.08145 | 145.30659 | 24656 ft | 433 kts | 330° |
| 2026-05-07 13:37 | -16.05486 | 145.29160 | 25132 ft | 435 kts | 330° |
| 2026-05-07 13:37 | -16.02805 | 145.27666 | 25562 ft | 438 kts | 330° |
| 2026-05-07 13:38 | -16.00114 | 145.26168 | 25977 ft | 440 kts | 330° |
| 2026-05-07 13:38 | -15.97409 | 145.24657 | 26381 ft | 443 kts | 329° |
| 2026-05-07 13:38 | -15.94692 | 145.23133 | 26728 ft | 446 kts | 329° |
| 2026-05-07 13:38 | -15.91948 | 145.21588 | 27118 ft | 448 kts | 329° |
| 2026-05-07 13:39 | -15.89210 | 145.20044 | 27499 ft | 450 kts | 329° |
| 2026-05-07 13:39 | -15.86490 | 145.18509 | 27849 ft | 451 kts | 329° |
| 2026-05-07 13:39 | -15.83721 | 145.16945 | 28209 ft | 454 kts | 329° |
| 2026-05-07 13:39 | -15.80939 | 145.15374 | 28543 ft | 456 kts | 329° |
| 2026-05-07 13:40 | -15.78146 | 145.13798 | 28837 ft | 458 kts | 329° |
| 2026-05-07 13:40 | -15.75340 | 145.12215 | 29080 ft | 460 kts | 329° |
| 2026-05-07 13:40 | -15.72515 | 145.10622 | 29356 ft | 462 kts | 329° |
| 2026-05-07 13:40 | -15.69682 | 145.09025 | 29626 ft | 464 kts | 329° |
| 2026-05-07 13:41 | -15.66843 | 145.07426 | 29876 ft | 465 kts | 329° |
| 2026-05-07 13:41 | -15.63989 | 145.05818 | 30079 ft | 467 kts | 329° |
| 2026-05-07 13:41 | -15.61122 | 145.04204 | 30268 ft | 468 kts | 329° |
| 2026-05-07 13:41 | -15.58261 | 145.02594 | 30510 ft | 468 kts | 329° |
| 2026-05-07 13:42 | -15.55399 | 145.00984 | 30789 ft | 466 kts | 328° |
| 2026-05-07 13:42 | -15.52589 | 144.99404 | 31052 ft | 465 kts | 328° |
| 2026-05-07 13:42 | -15.49747 | 144.97807 | 31334 ft | 464 kts | 328° |
| 2026-05-07 13:42 | -15.46915 | 144.96215 | 31603 ft | 463 kts | 328° |
| 2026-05-07 13:43 | -15.44083 | 144.94622 | 31859 ft | 462 kts | 328° |
| 2026-05-07 13:43 | -15.41255 | 144.93033 | 32083 ft | 462 kts | 328° |
| 2026-05-07 13:43 | -15.38432 | 144.91447 | 32337 ft | 461 kts | 328° |
| 2026-05-07 13:43 | -15.35618 | 144.89867 | 32595 ft | 460 kts | 328° |
| 2026-05-07 13:44 | -15.32805 | 144.88288 | 32843 ft | 459 kts | 328° |
| 2026-05-07 13:44 | -15.29996 | 144.86712 | 33077 ft | 459 kts | 328° |
| 2026-05-07 13:44 | -15.27192 | 144.85139 | 33332 ft | 457 kts | 328° |
| 2026-05-07 13:44 | -15.24396 | 144.83571 | 33585 ft | 456 kts | 328° |
| 2026-05-07 13:45 | -15.21601 | 144.82004 | 33822 ft | 456 kts | 328° |
| 2026-05-07 13:45 | -15.18844 | 144.80459 | 34024 ft | 456 kts | 328° |
| 2026-05-07 13:45 | -15.16055 | 144.78896 | 34207 ft | 455 kts | 328° |
| 2026-05-07 13:45 | -15.13231 | 144.77314 | 34391 ft | 455 kts | 328° |
| 2026-05-07 13:46 | -15.10445 | 144.75754 | 34587 ft | 454 kts | 328° |
| 2026-05-07 13:46 | -15.07703 | 144.74219 | 34758 ft | 454 kts | 328° |
| 2026-05-07 13:46 | -15.04927 | 144.72666 | 34943 ft | 454 kts | 328° |
| 2026-05-07 13:46 | -15.02151 | 144.71112 | 35133 ft | 453 kts | 328° |
| 2026-05-07 13:47 | -14.99375 | 144.69560 | 35329 ft | 453 kts | 328° |
| 2026-05-07 13:47 | -14.96597 | 144.68006 | 35519 ft | 452 kts | 328° |
| 2026-05-07 13:47 | -14.93830 | 144.66460 | 35714 ft | 452 kts | 328° |
| 2026-05-07 13:47 | -14.91063 | 144.64913 | 35880 ft | 452 kts | 328° |
| 2026-05-07 13:48 | -14.88286 | 144.63361 | 35915 ft | 454 kts | 328° |
| 2026-05-07 13:48 | -14.82731 | 144.60259 | 35976 ft | 453 kts | 328° |
| 2026-05-07 13:49 | -14.77200 | 144.57173 | 35973 ft | 450 kts | 328° |
| 2026-05-07 13:49 | -14.71727 | 144.54120 | 35981 ft | 449 kts | 328° |
| 2026-05-07 13:50 | -14.66225 | 144.51051 | 35983 ft | 450 kts | 328° |
| 2026-05-07 13:50 | -14.60707 | 144.47981 | 35982 ft | 451 kts | 328° |
| 2026-05-07 13:51 | -14.55176 | 144.44912 | 35982 ft | 452 kts | 328° |
| 2026-05-07 13:51 | -14.49621 | 144.41831 | 35978 ft | 453 kts | 328° |
| 2026-05-07 13:52 | -14.44067 | 144.38749 | 35977 ft | 454 kts | 328° |
| 2026-05-07 13:52 | -14.38505 | 144.35664 | 35970 ft | 454 kts | 328° |
| 2026-05-07 13:53 | -14.32962 | 144.32592 | 35970 ft | 455 kts | 328° |
| 2026-05-07 13:53 | -14.27392 | 144.29508 | 35968 ft | 454 kts | 328° |
| 2026-05-07 13:54 | -14.21824 | 144.26427 | 35970 ft | 454 kts | 328° |
| 2026-05-07 13:54 | -14.17194 | 144.23865 | 35967 ft | 454 kts | 328° |
| 2026-05-07 13:55 | -14.11627 | 144.20785 | 35965 ft | 454 kts | 328° |
| 2026-05-07 13:55 | -14.06053 | 144.17704 | 35970 ft | 454 kts | 328° |
| 2026-05-07 13:56 | -14.00478 | 144.14625 | 35970 ft | 454 kts | 329° |
| 2026-05-07 13:56 | -13.94903 | 144.11548 | 35967 ft | 454 kts | 329° |
| 2026-05-07 13:57 | -13.89323 | 144.08469 | 35968 ft | 454 kts | 329° |
| 2026-05-07 13:57 | -13.83748 | 144.05394 | 35971 ft | 455 kts | 329° |
| 2026-05-07 13:58 | -13.78165 | 144.02317 | 35967 ft | 455 kts | 329° |
| 2026-05-07 13:58 | -13.72587 | 143.99244 | 35964 ft | 455 kts | 329° |
| 2026-05-07 13:59 | -13.67042 | 143.96192 | 35966 ft | 455 kts | 329° |
| 2026-05-07 13:59 | -13.61449 | 143.93114 | 35965 ft | 455 kts | 329° |
| 2026-05-07 14:00 | -13.55854 | 143.90037 | 35964 ft | 455 kts | 329° |
| 2026-05-07 14:00 | -13.50260 | 143.86962 | 35964 ft | 456 kts | 329° |
| 2026-05-07 14:01 | -13.44658 | 143.83884 | 35966 ft | 456 kts | 329° |
| 2026-05-07 14:01 | -13.39096 | 143.80830 | 35959 ft | 456 kts | 329° |
| 2026-05-07 14:02 | -13.33492 | 143.77755 | 35961 ft | 456 kts | 329° |
| 2026-05-07 14:02 | -13.27888 | 143.74681 | 35959 ft | 456 kts | 329° |
| 2026-05-07 14:03 | -13.22280 | 143.71606 | 35961 ft | 456 kts | 329° |
| 2026-05-07 14:03 | -13.16674 | 143.68535 | 35961 ft | 457 kts | 329° |
| 2026-05-07 14:04 | -13.11067 | 143.65464 | 35967 ft | 457 kts | 329° |
| 2026-05-07 14:04 | -13.05457 | 143.62393 | 35961 ft | 457 kts | 329° |
| 2026-05-07 14:05 | -12.99873 | 143.59338 | 35960 ft | 458 kts | 329° |
| 2026-05-07 14:05 | -12.94241 | 143.56258 | 35960 ft | 458 kts | 329° |
| 2026-05-07 14:06 | -12.88617 | 143.53185 | 35961 ft | 458 kts | 329° |
| 2026-05-07 14:06 | -12.82982 | 143.50106 | 35960 ft | 459 kts | 329° |
| 2026-05-07 14:07 | -12.77348 | 143.47029 | 35958 ft | 459 kts | 329° |
| 2026-05-07 14:07 | -12.71709 | 143.43952 | 35956 ft | 459 kts | 329° |
| 2026-05-07 14:08 | -12.66102 | 143.40900 | 35956 ft | 459 kts | 330° |
| 2026-05-07 14:08 | -12.60461 | 143.37834 | 35957 ft | 459 kts | 330° |
| 2026-05-07 14:09 | -12.54806 | 143.34761 | 35955 ft | 460 kts | 330° |
| 2026-05-07 14:09 | -12.49151 | 143.31689 | 35953 ft | 460 kts | 330° |
| 2026-05-07 14:10 | -12.43488 | 143.28612 | 35953 ft | 460 kts | 330° |
| 2026-05-07 14:10 | -12.37855 | 143.25554 | 35954 ft | 460 kts | 330° |
| 2026-05-07 14:11 | -12.32190 | 143.22480 | 35951 ft | 461 kts | 330° |
| 2026-05-07 14:11 | -12.26515 | 143.19402 | 35951 ft | 461 kts | 330° |
| 2026-05-07 14:12 | -12.20881 | 143.16348 | 35950 ft | 461 kts | 330° |
| 2026-05-07 14:12 | -12.15206 | 143.13274 | 35948 ft | 461 kts | 330° |
| 2026-05-07 14:13 | -12.09527 | 143.10198 | 35950 ft | 462 kts | 330° |
| 2026-05-07 14:13 | -12.03840 | 143.07120 | 35947 ft | 462 kts | 330° |
| 2026-05-07 14:14 | -11.98161 | 143.04047 | 35947 ft | 462 kts | 330° |
| 2026-05-07 14:14 | -11.92476 | 143.00973 | 35944 ft | 462 kts | 330° |
| 2026-05-07 14:15 | -11.86782 | 142.97895 | 35944 ft | 462 kts | 330° |
| 2026-05-07 14:15 | -11.81089 | 142.94819 | 35944 ft | 462 kts | 330° |
| 2026-05-07 14:16 | -11.75443 | 142.91771 | 35946 ft | 462 kts | 330° |
| 2026-05-07 14:16 | -11.69748 | 142.88697 | 35944 ft | 463 kts | 330° |
| 2026-05-07 14:17 | -11.64056 | 142.85626 | 35945 ft | 463 kts | 330° |
| 2026-05-07 14:17 | -11.58347 | 142.82547 | 35945 ft | 463 kts | 330° |
| 2026-05-07 14:18 | -11.52680 | 142.79493 | 35943 ft | 464 kts | 330° |
| 2026-05-07 14:18 | -11.46969 | 142.76416 | 35941 ft | 464 kts | 330° |
| 2026-05-07 14:19 | -11.41257 | 142.73340 | 35940 ft | 464 kts | 330° |
| 2026-05-07 14:19 | -11.35535 | 142.70260 | 35942 ft | 465 kts | 330° |
| 2026-05-07 14:20 | -11.29813 | 142.67182 | 35941 ft | 465 kts | 330° |
| 2026-05-07 14:20 | -11.26940 | 142.65637 | 36050 ft | 466 kts | 330° |
| 2026-05-07 14:20 | -11.24118 | 142.64120 | 36286 ft | 465 kts | 330° |
| 2026-05-07 14:20 | -11.21241 | 142.62573 | 36548 ft | 463 kts | 330° |
| 2026-05-07 14:21 | -11.18398 | 142.61045 | 36812 ft | 462 kts | 330° |
| 2026-05-07 14:21 | -11.15556 | 142.59518 | 37050 ft | 461 kts | 330° |
| 2026-05-07 14:21 | -11.12718 | 142.57994 | 37255 ft | 460 kts | 330° |
| 2026-05-07 14:21 | -11.09886 | 142.56473 | 37451 ft | 460 kts | 330° |
| 2026-05-07 14:22 | -11.07058 | 142.54954 | 37639 ft | 460 kts | 330° |
| 2026-05-07 14:22 | -11.04223 | 142.53431 | 37814 ft | 460 kts | 330° |
| 2026-05-07 14:22 | -11.01428 | 142.51931 | 37878 ft | 461 kts | 330° |
| 2026-05-07 14:23 | -10.95749 | 142.48883 | 37931 ft | 462 kts | 330° |
| 2026-05-07 14:23 | -10.90066 | 142.45836 | 37935 ft | 461 kts | 330° |
| 2026-05-07 14:24 | -10.84393 | 142.42794 | 37930 ft | 460 kts | 330° |
| 2026-05-07 14:24 | -10.78729 | 142.39758 | 37931 ft | 460 kts | 330° |
| 2026-05-07 14:25 | -10.73057 | 142.36720 | 37936 ft | 460 kts | 330° |
| 2026-05-07 14:25 | -10.67384 | 142.33681 | 37933 ft | 460 kts | 330° |
| 2026-05-07 14:26 | -10.61762 | 142.30649 | 37936 ft | 460 kts | 328° |
| 2026-05-07 14:26 | -10.56525 | 142.26943 | 37929 ft | 458 kts | 318° |
| 2026-05-07 14:27 | -10.51793 | 142.22614 | 37931 ft | 458 kts | 316° |
| 2026-05-07 14:27 | -10.47075 | 142.18251 | 37947 ft | 458 kts | 317° |
| 2026-05-07 14:28 | -10.42378 | 142.13934 | 37943 ft | 459 kts | 317° |
| 2026-05-07 14:28 | -10.37631 | 142.09594 | 37938 ft | 459 kts | 317° |
| 2026-05-07 14:29 | -10.32873 | 142.05253 | 37935 ft | 460 kts | 317° |
| 2026-05-07 14:29 | -10.28115 | 142.00913 | 37915 ft | 460 kts | 317° |
| 2026-05-07 14:30 | -10.23343 | 141.96561 | 37929 ft | 460 kts | 317° |
| 2026-05-07 14:30 | -10.18572 | 141.92212 | 37932 ft | 460 kts | 317° |
| 2026-05-07 14:31 | -10.13803 | 141.87866 | 37930 ft | 460 kts | 317° |
| 2026-05-07 14:31 | -10.09061 | 141.83547 | 37917 ft | 461 kts | 317° |
| 2026-05-07 14:32 | -10.04285 | 141.79198 | 37931 ft | 461 kts | 317° |
| 2026-05-07 14:32 | -9.99513 | 141.74855 | 37933 ft | 461 kts | 317° |
| 2026-05-07 14:33 | -9.94740 | 141.70513 | 37925 ft | 461 kts | 317° |
| 2026-05-07 14:33 | -9.89963 | 141.66170 | 37929 ft | 461 kts | 317° |
| 2026-05-07 14:34 | -9.85218 | 141.61856 | 37917 ft | 461 kts | 317° |
| 2026-05-07 14:34 | -9.80440 | 141.57515 | 37922 ft | 461 kts | 317° |
| 2026-05-07 14:35 | -9.75667 | 141.53180 | 37921 ft | 461 kts | 317° |
| 2026-05-07 14:35 | -9.70887 | 141.48840 | 37925 ft | 461 kts | 317° |
| 2026-05-07 14:36 | -9.66110 | 141.44505 | 37924 ft | 461 kts | 317° |
| 2026-05-07 14:36 | -9.61359 | 141.40195 | 37923 ft | 461 kts | 317° |
| 2026-05-07 14:37 | -9.56576 | 141.35857 | 37924 ft | 461 kts | 317° |
| 2026-05-07 14:37 | -9.49397 | 141.29350 | 37928 ft | 462 kts | 317° |
| 2026-05-07 14:38 | -9.44609 | 141.25013 | 37926 ft | 462 kts | 317° |
| 2026-05-07 14:38 | -9.39813 | 141.20670 | 37926 ft | 462 kts | 317° |
| 2026-05-07 14:39 | -9.35024 | 141.16335 | 37922 ft | 462 kts | 317° |
| 2026-05-07 14:39 | -9.30249 | 141.12014 | 37925 ft | 462 kts | 317° |
| 2026-05-07 14:40 | -9.25449 | 141.07672 | 37925 ft | 463 kts | 318° |
| 2026-05-07 14:40 | -9.20646 | 141.03330 | 37919 ft | 463 kts | 318° |
| 2026-05-07 14:41 | -9.15841 | 140.98986 | 37920 ft | 463 kts | 318° |
| 2026-05-07 14:41 | -9.11030 | 140.94640 | 37925 ft | 463 kts | 318° |
| 2026-05-07 14:42 | -9.07037 | 140.91033 | 37921 ft | 463 kts | 318° |
| 2026-05-07 14:42 | -9.02230 | 140.86693 | 37921 ft | 464 kts | 318° |
| 2026-05-07 14:43 | -8.97427 | 140.82358 | 37924 ft | 464 kts | 318° |
| 2026-05-07 14:43 | -8.92592 | 140.77996 | 37920 ft | 464 kts | 318° |
| 2026-05-07 14:44 | -8.87770 | 140.73647 | 37920 ft | 464 kts | 318° |
| 2026-05-07 14:44 | -8.82944 | 140.69296 | 37923 ft | 465 kts | 318° |
| 2026-05-07 14:45 | -8.78116 | 140.64944 | 37922 ft | 465 kts | 318° |
| 2026-05-07 14:45 | -8.73285 | 140.60592 | 37921 ft | 465 kts | 318° |
| 2026-05-07 14:46 | -8.68450 | 140.56237 | 37921 ft | 465 kts | 319° |
| 2026-05-07 14:46 | -8.63641 | 140.51907 | 37920 ft | 466 kts | 319° |
| 2026-05-07 14:47 | -8.58799 | 140.47548 | 37923 ft | 466 kts | 319° |
| 2026-05-07 14:47 | -8.53733 | 140.43494 | 37914 ft | 465 kts | 332° |
| 2026-05-07 14:48 | -8.47653 | 140.41331 | 37926 ft | 466 kts | 351° |
| 2026-05-07 14:48 | -8.41225 | 140.40844 | 37927 ft | 467 kts | 356° |
| 2026-05-07 14:49 | -8.34721 | 140.40536 | 37922 ft | 468 kts | 356° |
| 2026-05-07 14:49 | -8.28203 | 140.40187 | 37922 ft | 469 kts | 356° |
| 2026-05-07 14:50 | -8.21671 | 140.39793 | 37917 ft | 470 kts | 356° |
| 2026-05-07 14:50 | -8.15145 | 140.39383 | 37915 ft | 470 kts | 356° |
| 2026-05-07 14:51 | -8.08620 | 140.38973 | 37913 ft | 470 kts | 356° |
| 2026-05-07 14:51 | -8.02095 | 140.38564 | 37916 ft | 469 kts | 356° |
| 2026-05-07 14:52 | -7.95616 | 140.38160 | 37916 ft | 469 kts | 356° |
| 2026-05-07 14:52 | -7.89095 | 140.37753 | 37911 ft | 469 kts | 356° |
| 2026-05-07 14:53 | -7.82575 | 140.37346 | 37914 ft | 469 kts | 356° |
| 2026-05-07 14:53 | -7.76058 | 140.36940 | 37905 ft | 469 kts | 356° |
| 2026-05-07 14:54 | -7.69531 | 140.36533 | 37908 ft | 470 kts | 356° |
| 2026-05-07 14:54 | -7.63042 | 140.36129 | 37914 ft | 470 kts | 356° |
| 2026-05-07 14:55 | -7.56496 | 140.35721 | 37914 ft | 471 kts | 356° |
| 2026-05-07 14:55 | -7.49945 | 140.35313 | 37912 ft | 472 kts | 356° |
| 2026-05-07 14:56 | -7.43373 | 140.34904 | 37910 ft | 473 kts | 356° |
| 2026-05-07 14:56 | -7.36822 | 140.34496 | 37910 ft | 474 kts | 356° |
| 2026-05-07 14:57 | -7.30225 | 140.34086 | 37908 ft | 475 kts | 356° |
| 2026-05-07 14:57 | -7.23622 | 140.33675 | 37908 ft | 476 kts | 356° |
| 2026-05-07 14:58 | -7.17007 | 140.33264 | 37905 ft | 476 kts | 356° |
| 2026-05-07 14:58 | -7.10384 | 140.32853 | 37909 ft | 477 kts | 356° |
| 2026-05-07 14:59 | -7.03759 | 140.32441 | 37908 ft | 476 kts | 356° |
| 2026-05-07 14:59 | -6.97142 | 140.32029 | 37908 ft | 475 kts | 356° |
| 2026-05-07 15:00 | -6.90585 | 140.31622 | 37905 ft | 474 kts | 356° |
| 2026-05-07 15:00 | -6.84001 | 140.31214 | 37906 ft | 474 kts | 356° |
| 2026-05-07 15:01 | -6.77423 | 140.30805 | 37905 ft | 473 kts | 356° |
| 2026-05-07 15:01 | -6.70854 | 140.30397 | 37904 ft | 473 kts | 356° |
| 2026-05-07 15:02 | -6.64279 | 140.29990 | 37905 ft | 472 kts | 356° |
| 2026-05-07 15:02 | -6.57709 | 140.29582 | 37904 ft | 473 kts | 356° |
| 2026-05-07 15:03 | -6.51195 | 140.29178 | 37907 ft | 473 kts | 356° |
| 2026-05-07 15:03 | -6.44606 | 140.28770 | 37912 ft | 473 kts | 356° |
| 2026-05-07 15:04 | -6.38034 | 140.28362 | 37904 ft | 474 kts | 356° |
| 2026-05-07 15:04 | -6.31451 | 140.27954 | 37905 ft | 474 kts | 356° |
| 2026-05-07 15:05 | -6.24866 | 140.27546 | 37908 ft | 474 kts | 356° |
| 2026-05-07 15:05 | -6.18283 | 140.27139 | 37903 ft | 473 kts | 356° |
| 2026-05-07 15:06 | -6.11742 | 140.27042 | 37913 ft | 473 kts | 4° |
| 2026-05-07 15:06 | -6.05234 | 140.28069 | 37900 ft | 474 kts | 13° |
| 2026-05-07 15:07 | -5.98834 | 140.29671 | 37905 ft | 473 kts | 14° |
| 2026-05-07 15:07 | -5.92449 | 140.31291 | 37904 ft | 472 kts | 13° |
| 2026-05-07 15:08 | -5.86061 | 140.32881 | 37910 ft | 473 kts | 13° |
| 2026-05-07 15:08 | -5.79672 | 140.34453 | 37900 ft | 473 kts | 13° |
| 2026-05-07 15:09 | -5.73326 | 140.36010 | 37903 ft | 472 kts | 13° |
| 2026-05-07 15:09 | -5.66958 | 140.37573 | 37903 ft | 471 kts | 13° |
| 2026-05-07 15:10 | -5.60578 | 140.39140 | 37905 ft | 470 kts | 13° |
| 2026-05-07 15:10 | -5.54228 | 140.40699 | 37908 ft | 469 kts | 13° |
| 2026-05-07 15:11 | -5.47884 | 140.42256 | 37907 ft | 469 kts | 13° |
| 2026-05-07 15:11 | -5.41581 | 140.43803 | 37910 ft | 468 kts | 13° |
| 2026-05-07 15:12 | -5.35252 | 140.45356 | 37913 ft | 468 kts | 13° |
| 2026-05-07 15:12 | -5.28924 | 140.46909 | 37922 ft | 468 kts | 13° |
| 2026-05-07 15:13 | -5.22598 | 140.48460 | 37934 ft | 467 kts | 13° |
| 2026-05-07 15:13 | -5.16272 | 140.50012 | 37944 ft | 467 kts | 13° |
| 2026-05-07 15:14 | -5.09952 | 140.51561 | 37960 ft | 468 kts | 13° |
| 2026-05-07 15:14 | -5.03660 | 140.53104 | 37975 ft | 468 kts | 13° |
| 2026-05-07 15:15 | -4.97328 | 140.54656 | 37989 ft | 468 kts | 13° |
| 2026-05-07 15:15 | -4.91002 | 140.56206 | 38003 ft | 469 kts | 13° |
| 2026-05-07 15:16 | -4.84608 | 140.57514 | 38008 ft | 469 kts | 7° |
| 2026-05-07 15:16 | -4.78096 | 140.57758 | 38012 ft | 469 kts | 359° |
| 2026-05-07 15:17 | -4.71560 | 140.57576 | 38008 ft | 469 kts | 359° |
| 2026-05-07 15:17 | -4.65022 | 140.57404 | 38004 ft | 470 kts | 359° |
| 2026-05-07 15:18 | -4.58468 | 140.57260 | 37988 ft | 471 kts | 359° |
| 2026-05-07 15:18 | -4.51917 | 140.57128 | 37974 ft | 471 kts | 359° |
| 2026-05-07 15:19 | -4.48681 | 140.57062 | 37744 ft | 472 kts | 359° |
| 2026-05-07 15:19 | -4.45378 | 140.56995 | 37194 ft | 473 kts | 359° |
| 2026-05-07 15:19 | -4.42089 | 140.56927 | 36552 ft | 472 kts | 359° |
| 2026-05-07 15:19 | -4.38814 | 140.56859 | 35902 ft | 472 kts | 359° |
| 2026-05-07 15:20 | -4.35521 | 140.56791 | 35159 ft | 474 kts | 359° |
| 2026-05-07 15:20 | -4.32210 | 140.56724 | 34363 ft | 477 kts | 359° |
| 2026-05-07 15:20 | -4.28877 | 140.56655 | 33490 ft | 481 kts | 359° |
| 2026-05-07 15:20 | -4.25509 | 140.56585 | 32580 ft | 485 kts | 359° |
| 2026-05-07 15:21 | -4.22125 | 140.56499 | 31809 ft | 485 kts | 359° |
| 2026-05-07 15:21 | -4.18769 | 140.56401 | 31211 ft | 482 kts | 359° |
| 2026-05-07 15:21 | -4.15427 | 140.56299 | 30600 ft | 479 kts | 359° |
| 2026-05-07 15:21 | -4.12105 | 140.56196 | 30012 ft | 477 kts | 359° |
| 2026-05-07 15:22 | -4.08793 | 140.56095 | 29317 ft | 473 kts | 359° |
| 2026-05-07 15:22 | -4.05512 | 140.55997 | 28641 ft | 469 kts | 359° |
| 2026-05-07 15:22 | -4.02267 | 140.55901 | 27999 ft | 464 kts | 359° |
| 2026-05-07 15:22 | -3.99089 | 140.55808 | 27373 ft | 460 kts | 359° |
| 2026-05-07 15:23 | -3.95901 | 140.55715 | 26763 ft | 456 kts | 359° |
| 2026-05-07 15:23 | -3.92739 | 140.55623 | 26163 ft | 453 kts | 359° |
| 2026-05-07 15:23 | -3.89594 | 140.55532 | 25553 ft | 450 kts | 359° |
| 2026-05-07 15:23 | -3.86473 | 140.55441 | 24933 ft | 448 kts | 359° |
| 2026-05-07 15:24 | -3.83364 | 140.55351 | 24326 ft | 446 kts | 358° |
| 2026-05-07 15:24 | -3.80273 | 140.55261 | 23727 ft | 444 kts | 358° |
| 2026-05-07 15:24 | -3.77187 | 140.55171 | 23054 ft | 442 kts | 358° |
| 2026-05-07 15:24 | -3.74118 | 140.55081 | 22399 ft | 439 kts | 358° |
| 2026-05-07 15:25 | -3.71075 | 140.54993 | 21793 ft | 435 kts | 358° |
| 2026-05-07 15:25 | -3.68053 | 140.54904 | 21190 ft | 432 kts | 358° |
| 2026-05-07 15:25 | -3.65059 | 140.54817 | 20627 ft | 428 kts | 358° |
| 2026-05-07 15:25 | -3.62090 | 140.54731 | 20054 ft | 425 kts | 358° |
| 2026-05-07 15:26 | -3.59140 | 140.54645 | 19467 ft | 422 kts | 358° |
| 2026-05-07 15:26 | -3.56213 | 140.54560 | 18898 ft | 420 kts | 358° |
| 2026-05-07 15:26 | -3.53301 | 140.54475 | 18341 ft | 418 kts | 358° |
| 2026-05-07 15:26 | -3.50430 | 140.54391 | 17728 ft | 416 kts | 358° |
| 2026-05-07 15:27 | -3.47551 | 140.54307 | 17142 ft | 412 kts | 358° |
| 2026-05-07 15:27 | -3.44701 | 140.54224 | 16592 ft | 409 kts | 358° |
| 2026-05-07 15:27 | -3.41875 | 140.54142 | 16154 ft | 402 kts | 358° |
| 2026-05-07 15:27 | -3.39092 | 140.54061 | 15648 ft | 399 kts | 358° |
| 2026-05-07 15:28 | -3.36326 | 140.53980 | 15128 ft | 396 kts | 359° |
| 2026-05-07 15:28 | -3.34505 | 140.53927 | 14794 ft | 394 kts | 359° |
| 2026-05-07 15:28 | -3.31774 | 140.53848 | 14270 ft | 391 kts | 359° |
| 2026-05-07 15:28 | -3.29055 | 140.53768 | 13761 ft | 390 kts | 359° |
| 2026-05-07 15:29 | -3.26351 | 140.53689 | 13190 ft | 388 kts | 359° |
| 2026-05-07 15:29 | -3.23663 | 140.53611 | 12658 ft | 385 kts | 359° |
| 2026-05-07 15:29 | -3.20989 | 140.53534 | 12132 ft | 382 kts | 359° |
| 2026-05-07 15:29 | -3.18339 | 140.53457 | 11628 ft | 380 kts | 359° |
| 2026-05-07 15:30 | -3.15713 | 140.53380 | 11121 ft | 377 kts | 359° |
| 2026-05-07 15:30 | -3.13104 | 140.53304 | 10817 ft | 369 kts | 359° |
| 2026-05-07 15:30 | -3.10579 | 140.53230 | 10648 ft | 357 kts | 359° |
| 2026-05-07 15:30 | -3.08128 | 140.53159 | 10485 ft | 346 kts | 359° |
| 2026-05-07 15:31 | -3.05840 | 140.53338 | 10326 ft | 327 kts | 17° |
| 2026-05-07 15:31 | -3.03855 | 140.54314 | 10232 ft | 313 kts | 38° |
| 2026-05-07 15:31 | -3.02181 | 140.55614 | 9961 ft | 300 kts | 33° |
| 2026-05-07 15:31 | -3.00356 | 140.56616 | 9677 ft | 297 kts | 26° |
| 2026-05-07 15:32 | -2.98511 | 140.57479 | 9448 ft | 291 kts | 25° |
| 2026-05-07 15:32 | -2.96675 | 140.58323 | 9116 ft | 289 kts | 25° |
| 2026-05-07 15:32 | -2.94860 | 140.59170 | 8774 ft | 287 kts | 26° |
| 2026-05-07 15:32 | -2.93059 | 140.60025 | 8448 ft | 286 kts | 26° |
| 2026-05-07 15:33 | -2.91272 | 140.60884 | 8161 ft | 283 kts | 26° |
| 2026-05-07 15:33 | -2.89512 | 140.61738 | 7801 ft | 282 kts | 26° |
| 2026-05-07 15:33 | -2.87752 | 140.62596 | 7462 ft | 280 kts | 26° |
| 2026-05-07 15:33 | -2.85997 | 140.63453 | 7153 ft | 279 kts | 26° |
| 2026-05-07 15:34 | -2.84260 | 140.64305 | 6839 ft | 274 kts | 26° |
| 2026-05-07 15:34 | -2.82625 | 140.65105 | 6564 ft | 262 kts | 26° |
| 2026-05-07 15:34 | -2.80989 | 140.65908 | 6210 ft | 261 kts | 26° |
| 2026-05-07 15:34 | -2.79363 | 140.66707 | 5883 ft | 259 kts | 26° |
| 2026-05-07 15:35 | -2.77757 | 140.67495 | 5586 ft | 256 kts | 26° |
| 2026-05-07 15:35 | -2.76168 | 140.68275 | 5339 ft | 250 kts | 26° |
| 2026-05-07 15:35 | -2.74623 | 140.69033 | 5212 ft | 247 kts | 26° |
| 2026-05-07 15:35 | -2.73086 | 140.69787 | 5119 ft | 244 kts | 26° |
| 2026-05-07 15:36 | -2.71585 | 140.70564 | 5043 ft | 242 kts | 35° |
| 2026-05-07 15:36 | -2.70466 | 140.71775 | 5023 ft | 244 kts | 62° |
| 2026-05-07 15:36 | -2.70039 | 140.73421 | 5005 ft | 243 kts | 93° |
| 2026-05-07 15:36 | -2.70514 | 140.74988 | 5006 ft | 240 kts | 122° |
| 2026-05-07 15:37 | -2.71502 | 140.76320 | 5020 ft | 238 kts | 128° |
| 2026-05-07 15:37 | -2.72516 | 140.77643 | 5019 ft | 241 kts | 128° |
| 2026-05-07 15:37 | -2.73547 | 140.78974 | 5010 ft | 241 kts | 131° |
| 2026-05-07 15:37 | -2.74898 | 140.79921 | 5006 ft | 239 kts | 162° |
| 2026-05-07 15:38 | -2.76544 | 140.79988 | 5015 ft | 240 kts | 194° |
| 2026-05-07 15:38 | -2.78003 | 140.79204 | 5009 ft | 242 kts | 224° |
| 2026-05-07 15:38 | -2.78877 | 140.77801 | 5008 ft | 244 kts | 253° |
| 2026-05-07 15:38 | -2.78910 | 140.76122 | 5004 ft | 245 kts | 285° |
| 2026-05-07 15:39 | -2.78055 | 140.74670 | 5009 ft | 246 kts | 317° |
| 2026-05-07 15:39 | -2.76560 | 140.73892 | 5002 ft | 246 kts | 350° |
| 2026-05-07 15:39 | -2.74912 | 140.73582 | 4983 ft | 240 kts | 335° |
| 2026-05-07 15:39 | -2.73590 | 140.72577 | 5025 ft | 244 kts | 314° |
| 2026-05-07 15:40 | -2.72457 | 140.71284 | 5017 ft | 246 kts | 309° |
| 2026-05-07 15:40 | -2.71426 | 140.69933 | 4989 ft | 241 kts | 299° |
| 2026-05-07 15:40 | -2.71047 | 140.68331 | 5009 ft | 240 kts | 264° |
| 2026-05-07 15:40 | -2.71624 | 140.66785 | 5024 ft | 240 kts | 232° |
| 2026-05-07 15:41 | -2.72908 | 140.65737 | 5016 ft | 241 kts | 203° |
| 2026-05-07 15:41 | -2.74549 | 140.65448 | 5012 ft | 242 kts | 174° |
| 2026-05-07 15:41 | -2.76117 | 140.66026 | 5012 ft | 243 kts | 144° |
| 2026-05-07 15:41 | -2.77265 | 140.67257 | 5017 ft | 242 kts | 127° |
| 2026-05-07 15:42 | -2.78269 | 140.68610 | 5019 ft | 243 kts | 127° |
| 2026-05-07 15:42 | -2.79285 | 140.69971 | 5017 ft | 244 kts | 127° |
| 2026-05-07 15:42 | -2.80306 | 140.71333 | 5014 ft | 245 kts | 127° |
| 2026-05-07 15:42 | -2.81245 | 140.72737 | 4973 ft | 242 kts | 113° |
| 2026-05-07 15:43 | -2.81478 | 140.74381 | 4810 ft | 240 kts | 82° |
| 2026-05-07 15:43 | -2.80840 | 140.75865 | 4564 ft | 235 kts | 51° |
| 2026-05-07 15:43 | -2.79531 | 140.76828 | 4307 ft | 231 kts | 20° |
| 2026-05-07 15:43 | -2.77979 | 140.76992 | 4100 ft | 223 kts | 347° |
| 2026-05-07 15:44 | -2.76666 | 140.76348 | 4028 ft | 208 kts | 319° |
| 2026-05-07 15:44 | -2.75704 | 140.75323 | 4014 ft | 200 kts | 309° |
| 2026-05-07 15:44 | -2.74828 | 140.74256 | 4005 ft | 197 kts | 309° |
| 2026-05-07 15:44 | -2.73949 | 140.73224 | 4024 ft | 194 kts | 312° |
| 2026-05-07 15:45 | -2.73051 | 140.72202 | 4013 ft | 196 kts | 309° |
| 2026-05-07 15:45 | -2.72194 | 140.71128 | 4015 ft | 198 kts | 307° |
| 2026-05-07 15:45 | -2.71361 | 140.70032 | 4018 ft | 199 kts | 307° |
| 2026-05-07 15:45 | -2.70531 | 140.68921 | 3967 ft | 201 kts | 306° |
| 2026-05-07 15:46 | -2.68885 | 140.66702 | 3441 ft | 193 kts | 306° |
| 2026-05-07 15:46 | -2.68088 | 140.65629 | 3213 ft | 192 kts | 307° |
| 2026-05-07 15:46 | -2.67299 | 140.64566 | 2991 ft | 193 kts | 307° |
| 2026-05-07 15:47 | -2.66500 | 140.63491 | 2736 ft | 192 kts | 307° |
| 2026-05-07 15:47 | -2.65711 | 140.62427 | 2487 ft | 189 kts | 307° |
| 2026-05-07 15:47 | -2.64949 | 140.61401 | 2268 ft | 178 kts | 307° |
| 2026-05-07 15:47 | -2.64238 | 140.60442 | 2017 ft | 165 kts | 307° |
| 2026-05-07 15:48 | -2.63569 | 140.59541 | 1835 ft | 160 kts | 307° |
| 2026-05-07 15:48 | -2.62903 | 140.58644 | 1657 ft | 161 kts | 306° |
| 2026-05-07 15:48 | -2.62240 | 140.57751 | 1437 ft | 159 kts | 306° |
| 2026-05-07 15:48 | -2.61582 | 140.56864 | 1257 ft | 158 kts | 306° |
| 2026-05-07 15:49 | -2.60928 | 140.55984 | 1039 ft | 158 kts | 306° |
| 2026-05-07 15:49 | -2.60277 | 140.55107 | 825 ft | 156 kts | 306° |
| 2026-05-07 15:49 | -2.59631 | 140.54237 | 625 ft | 155 kts | 306° |
| 2026-05-07 15:49 | -2.58987 | 140.53374 | 410 ft | 153 kts | 307° |
| 2026-05-07 15:50 | -2.58350 | 140.52517 | 308 ft | 151 kts | 307° |
| 2026-05-07 15:50 | -2.57785 | 140.51762 | 306 ft | 115 kts | 307° |
| 2026-05-07 15:50 | -2.57398 | 140.51244 | 306 ft | 71 kts | 307° |
| 2026-05-07 15:50 | -2.57194 | 140.50969 | 308 ft | 29 kts | 307° |
| 2026-05-07 15:51 | -2.57130 | 140.50891 | 309 ft | 7 kts | 333° |
| 2026-05-07 15:51 | -2.57083 | 140.50901 | 306 ft | 7 kts | 26° |
| 2026-05-07 15:51 | -2.57042 | 140.50928 | 306 ft | 7 kts | 35° |
| 2026-05-07 15:51 | -2.57007 | 140.50961 | 307 ft | 7 kts | 64° |
| 2026-05-07 15:52 | -2.57018 | 140.51006 | 306 ft | 7 kts | 121° |
| 2026-05-07 15:52 | -2.57047 | 140.51047 | 307 ft | 7 kts | 127° |
| 2026-05-07 15:52 | -2.57077 | 140.51086 | 304 ft | 7 kts | 129° |
| 2026-05-07 15:52 | -2.57109 | 140.51123 | 305 ft | 7 kts | 129° |
| 2026-05-07 15:53 | -2.57139 | 140.51163 | 305 ft | 7 kts | 122° |
| 2026-05-07 15:53 | -2.57166 | 140.51204 | 305 ft | 7 kts | 127° |
| 2026-05-07 15:53 | -2.57196 | 140.51243 | 305 ft | 5 kts | 127° |
| 2026-05-07 15:53 | -2.57197 | 140.51264 | 306 ft | 3 kts | 70° |
| 2026-05-07 15:54 | -2.57184 | 140.51279 | 306 ft | 3 kts | 43° |
| 2026-05-07 15:54 | -2.57166 | 140.51293 | 304 ft | 3 kts | 38° |
| 2026-05-07 15:54 | -2.57155 | 140.51301 | 305 ft | 1 kts | 37° |
| 2026-05-07 15:54 | -2.57154 | 140.51302 | 305 ft | 0 kts | 37° |